Terminal Aerodrome Forecast
Issued by NWS

Home | Current Version | Previous Version | Text Only | Print | Product List | Glossary On
Versions: 1 2 3 4 5 6 7 8 9 10 11 12 13 14 15 16 17 18
981
FTUS44 KLZK 201751
TAFPBF
TAF
KPBF 201751Z 2018/2118 16015KT P6SM SCT025 BKN050
     FM210000 20010KT 6SM BR VCSH BKN025
     FM210400 29010KT 4SM -RA BR BKN015
      TEMPO 2104/2108 2SM RA BR OVC008
     FM211200 VRB03KT 2SM BR BKN010
     FM211600 30004KT P6SM BKN035=

USA.gov is the U.S. government's official web portal to all federal, state and local government web resources and services.